Time;durP1;ratioP1;P1;durP2;ratioP2;P2;SDS_P1;SDS_P2;PMS_P1;PMS_P2;Temp;Humidity;BMP_temperature;BMP_pressure;BME280_temperature;BME280_humidity;BME280_pressure;Samples;Min_cycle;Max_cycle;Signal;HPM_P1;HPM_P2
2022/01/30 00:00:24;;;;;;;26.98;4.53;;;5.90;99.90;;;;;;5055122;28;20053;-77
2022/01/30 00:02:53;;;;;;;38.50;5.70;;;5.90;99.90;;;;;;5030088;28;20037;-80
2022/01/30 00:05:19;;;;;;;29.60;4.28;;;5.90;99.90;;;;;;5036517;28;20071;-77
2022/01/30 00:07:45;;;;;;;32.65;4.90;;;6.00;99.90;;;;;;5041992;28;20033;-78
2022/01/30 00:10:13;;;;;;;34.92;6.13;;;6.00;99.90;;;;;;5040208;28;20049;-78
2022/01/30 00:12:51;;;;;;;30.92;4.78;;;6.10;99.90;;;;;;5032531;28;20046;-79
2022/01/30 00:15:18;;;;;;;35.70;4.95;;;6.20;99.90;;;;;;5003209;28;20134;-78
2022/01/30 00:17:53;;;;;;;27.83;5.72;;;6.20;99.90;;;;;;5013262;28;20375;-77
2022/01/30 00:20:23;;;;;;;33.67;4.35;;;6.40;99.90;;;;;;5038307;28;20124;-79
2022/01/30 00:23:08;;;;;;;33.13;3.90;;;6.70;99.90;;;;;;5041288;28;20057;-77
2022/01/30 00:25:45;;;;;;;29.90;3.75;;;6.50;99.90;;;;;;5038508;28;20053;-78
2022/01/30 00:28:14;;;;;;;33.85;5.35;;;6.50;99.90;;;;;;5043808;28;20041;-77
2022/01/30 00:30:40;;;;;;;27.77;4.28;;;6.50;99.90;;;;;;5037099;28;20083;-76
2022/01/30 00:33:06;;;;;;;25.20;3.88;;;6.50;99.90;;;;;;5031694;28;20041;-80
2022/01/30 00:35:33;;;;;;;27.00;3.67;;;6.50;99.90;;;;;;5016453;28;20075;-77
2022/01/30 00:38:00;;;;;;;23.80;3.30;;;6.50;99.90;;;;;;5035774;28;20056;-77
2022/01/30 00:40:26;;;;;;;25.60;3.65;;;6.40;99.90;;;;;;5014187;28;20631;-77
2022/01/30 00:42:51;;;;;;;27.25;3.40;;;6.40;99.90;;;;;;5043337;28;20041;-77
2022/01/30 00:45:17;;;;;;;31.90;4.72;;;6.30;99.90;;;;;;5021250;28;20463;-78
2022/01/30 00:47:43;;;;;;;24.75;4.43;;;6.30;99.90;;;;;;5032962;28;20418;-78
2022/01/30 00:50:10;;;;;;;19.70;3.60;;;6.20;99.90;;;;;;5021983;28;20384;-75
2022/01/30 00:52:35;;;;;;;16.63;3.20;;;6.20;99.90;;;;;;5016582;28;20405;-77
2022/01/30 00:55:01;;;;;;;17.95;2.78;;;6.10;99.90;;;;;;5034860;28;20128;-76
2022/01/30 00:57:27;;;;;;;25.30;4.03;;;6.10;99.90;;;;;;5041743;28;20510;-78
2022/01/30 00:59:52;;;;;;;21.13;4.00;;;6.00;99.90;;;;;;5011464;28;20056;-78
2022/01/30 01:02:18;;;;;;;18.58;2.63;;;5.90;99.90;;;;;;5029309;28;20049;-78
2022/01/30 01:04:44;;;;;;;19.23;3.40;;;5.90;99.90;;;;;;5031869;28;20052;-78
2022/01/30 01:07:17;;;;;;;22.88;3.47;;;5.80;99.90;;;;;;5027686;28;20042;-78
2022/01/30 01:09:50;;;;;;;20.40;4.18;;;5.80;99.90;;;;;;5026649;28;20079;-78
2022/01/30 01:23:30;;;;;;;31.35;5.55;;;5.60;99.90;;;;;;5035858;28;20052;-75
2022/01/30 01:25:57;;;;;;;34.53;5.43;;;5.60;99.90;;;;;;5033696;28;20057;-80
2022/01/30 01:28:24;;;;;;;31.33;5.20;;;5.60;99.90;;;;;;5044241;28;20160;-80
2022/01/30 01:30:50;;;;;;;34.67;4.75;;;6.20;99.90;;;;;;5015015;28;20034;-80
2022/01/30 01:33:17;;;;;;;41.88;5.07;;;5.70;99.90;;;;;;5036423;28;20042;-80
2022/01/30 01:35:43;;;;;;;39.13;5.68;;;5.70;99.90;;;;;;5014595;28;20041;-77
2022/01/30 01:38:11;;;;;;;42.92;5.90;;;5.70;99.90;;;;;;5037377;28;20054;-81
2022/01/30 01:40:38;;;;;;;34.03;5.53;;;5.70;99.90;;;;;;5033145;28;20044;-80
2022/01/30 01:43:04;;;;;;;42.15;5.55;;;5.60;99.90;;;;;;5038995;28;20041;-79
2022/01/30 01:45:38;;;;;;;31.63;4.43;;;5.60;99.90;;;;;;5039754;28;20463;-80
2022/01/30 01:48:10;;;;;;;31.02;5.15;;;5.50;99.90;;;;;;5019238;28;20037;-77
2022/01/30 01:50:39;;;;;;;44.85;5.05;;;5.40;99.90;;;;;;5019333;28;20112;-78
2022/01/30 01:53:10;;;;;;;30.38;5.60;;;5.40;99.90;;;;;;5038550;28;20099;-79
2022/01/30 01:55:40;;;;;;;31.10;5.00;;;5.30;99.90;;;;;;5036803;28;20055;-80
2022/01/30 01:58:06;;;;;;;40.80;5.97;;;5.30;99.90;;;;;;5036341;28;20067;-78
2022/01/30 02:00:33;;;;;;;33.30;6.38;;;5.30;99.90;;;;;;5025403;28;20049;-76
2022/01/30 02:02:59;;;;;;;43.78;5.40;;;5.30;99.90;;;;;;5019156;28;20049;-78
2022/01/30 02:05:30;;;;;;;44.95;5.53;;;5.30;99.90;;;;;;5056472;28;20099;-79
2022/01/30 02:08:07;;;;;;;;;;;5.40;99.90;;;;;;5030057;28;20447;-80
2022/01/30 02:10:47;;;;;;;44.22;5.00;;;6.10;99.90;;;;;;5028883;28;19931;-79
2022/01/30 02:13:46;;;;;;;35.30;6.72;;;5.50;99.90;;;;;;5042002;28;20064;-78
2022/01/30 02:24:23;;;;;;;24.80;4.18;;;5.70;99.90;;;;;;5058128;28;20065;-79
2022/01/30 02:26:49;;;;;;;29.67;4.82;;;5.60;99.90;;;;;;5044719;28;20049;-79
2022/01/30 02:29:14;;;;;;;29.70;4.35;;;5.60;99.90;;;;;;5011527;28;20040;-78
2022/01/30 02:31:42;;;;;;;34.50;6.07;;;5.50;99.90;;;;;;5028382;28;20049;-77
2022/01/30 02:34:08;;;;;;;35.25;6.10;;;5.50;99.90;;;;;;5030448;28;20047;-78
2022/01/30 02:36:55;;;;;;;42.35;6.07;;;5.50;99.90;;;;;;5047083;28;20050;-76
2022/01/30 02:39:21;;;;;;;28.55;4.53;;;5.50;99.90;;;;;;5034279;28;20053;-78
2022/01/30 02:41:47;;;;;;;34.22;6.57;;;5.60;99.90;;;;;;5038391;28;20125;-78
2022/01/30 02:44:19;;;;;;;30.40;4.57;;;5.70;99.90;;;;;;5037714;28;20042;-79
2022/01/30 02:46:48;;;;;;;30.90;4.28;;;5.70;99.90;;;;;;5028552;28;20049;-78
2022/01/30 02:52:00;;;;;;;31.63;5.28;;;5.70;99.90;;;;;;5026946;28;20506;-76
2022/01/30 02:54:27;;;;;;;38.75;6.55;;;5.70;99.90;;;;;;5030696;28;20132;-77
2022/01/30 02:56:53;;;;;;;38.33;5.43;;;5.70;99.90;;;;;;5032010;28;20789;-76
2022/01/30 02:59:19;;;;;;;44.35;5.40;;;5.70;99.90;;;;;;5036027;28;20040;-80
2022/01/30 03:01:45;;;;;;;42.47;6.60;;;5.70;99.90;;;;;;5019761;28;20041;-78
2022/01/30 03:04:11;;;;;;;39.28;5.82;;;5.70;99.90;;;;;;5026794;28;20167;-79
2022/01/30 03:06:37;;;;;;;32.22;6.25;;;5.70;99.90;;;;;;5042552;28;20057;-79
2022/01/30 03:09:05;;;;;;;36.95;6.70;;;5.70;99.90;;;;;;5057402;28;20048;-80
2022/01/30 03:11:31;;;;;;;32.78;5.00;;;5.70;99.90;;;;;;5012929;28;20099;-80
2022/01/30 03:13:57;;;;;;;36.67;6.00;;;5.70;99.90;;;;;;5032229;28;20547;-80
2022/01/30 03:16:23;;;;;;;33.60;5.57;;;5.70;99.90;;;;;;5046541;28;20046;-78
2022/01/30 03:18:49;;;;;;;28.52;5.40;;;5.70;99.90;;;;;;5023554;28;20045;-80
2022/01/30 03:21:15;;;;;;;30.85;4.68;;;6.20;99.90;;;;;;5011678;28;20448;-78
2022/01/30 03:23:41;;;;;;;34.38;4.53;;;5.80;99.90;;;;;;5022419;28;20037;-77
2022/01/30 03:26:08;;;;;;;30.17;4.47;;;5.80;99.90;;;;;;5029609;28;20102;-78
2022/01/30 03:28:35;;;;;;;33.22;5.88;;;5.80;99.90;;;;;;5030448;28;20049;-79
2022/01/30 03:31:04;;;;;;;55.15;6.97;;;5.90;99.90;;;;;;5011790;28;20096;-78
2022/01/30 03:33:30;;;;;;;42.95;5.25;;;5.90;99.90;;;;;;5038639;28;20083;-78
2022/01/30 03:35:56;;;;;;;36.88;5.85;;;6.00;99.90;;;;;;5016088;28;20081;-77
2022/01/30 03:38:23;;;;;;;45.35;6.25;;;6.20;99.90;;;;;;5018252;28;20049;-80
2022/01/30 03:40:49;;;;;;;36.85;5.70;;;6.00;99.90;;;;;;5011957;28;20067;-81
2022/01/30 03:43:15;;;;;;;40.55;5.65;;;6.00;99.90;;;;;;5015573;28;20452;-79
2022/01/30 03:45:42;;;;;;;46.85;7.28;;;6.00;99.90;;;;;;5029061;28;20049;-80
2022/01/30 03:48:07;;;;;;;35.35;6.20;;;6.00;99.90;;;;;;5012521;28;20044;-79
2022/01/30 03:50:33;;;;;;;55.95;6.90;;;6.00;99.90;;;;;;5028443;28;20053;-79
2022/01/30 03:52:59;;;;;;;46.38;6.13;;;6.00;99.90;;;;;;5011865;28;20049;-79
2022/01/30 03:55:25;;;;;;;38.22;6.28;;;6.00;99.90;;;;;;5018888;28;20044;-80
2022/01/30 03:57:51;;;;;;;33.63;5.25;;;6.00;99.90;;;;;;5029430;28;20041;-80
2022/01/30 04:00:17;;;;;;;50.17;7.93;;;6.10;99.90;;;;;;5030654;28;20038;-77
2022/01/30 04:02:43;;;;;;;44.00;6.82;;;6.10;99.90;;;;;;5040805;28;20037;-79
2022/01/30 04:05:09;;;;;;;44.38;6.72;;;6.10;99.90;;;;;;5011963;28;20494;-79
2022/01/30 04:07:35;;;;;;;43.08;6.50;;;6.10;99.90;;;;;;5027657;28;20046;-77
2022/01/30 04:10:03;;;;;;;47.13;7.32;;;6.10;99.90;;;;;;5012589;28;20041;-80
2022/01/30 04:12:29;;;;;;;38.50;6.32;;;6.10;99.90;;;;;;5040430;28;20574;-79
2022/01/30 04:14:55;;;;;;;45.50;6.40;;;6.10;99.90;;;;;;5032470;28;20057;-79
2022/01/30 04:17:21;;;;;;;39.40;6.15;;;6.00;99.90;;;;;;5011209;28;20501;-77
2022/01/30 04:19:47;;;;;;;52.13;8.00;;;6.00;99.90;;;;;;5010630;28;20045;-76
2022/01/30 04:22:13;;;;;;;46.47;6.30;;;5.90;99.90;;;;;;5010846;28;20037;-77
2022/01/30 04:24:39;;;;;;;43.55;6.57;;;5.90;99.90;;;;;;5029325;28;20049;-79
2022/01/30 04:27:05;;;;;;;38.80;6.30;;;5.80;99.90;;;;;;5012741;28;20063;-80
2022/01/30 04:29:31;;;;;;;38.40;5.55;;;5.80;99.90;;;;;;5036184;28;20097;-80
2022/01/30 04:31:57;;;;;;;41.50;6.45;;;5.70;99.90;;;;;;5046031;28;20620;-79
2022/01/30 04:34:24;;;;;;;37.72;6.50;;;5.70;99.90;;;;;;5009381;28;20056;-79
2022/01/30 05:01:17;;;;;;;46.60;7.40;;;5.80;99.90;;;;;;5024008;28;20061;-80
2022/01/30 05:06:16;;;;;;;59.33;8.18;;;5.80;99.90;;;;;;5038423;28;20053;-80
2022/01/30 05:08:42;;;;;;;47.08;7.88;;;5.80;99.90;;;;;;5025586;28;20116;-79
2022/01/30 05:11:09;;;;;;;53.42;7.05;;;5.70;99.90;;;;;;5025669;28;20820;-79
2022/01/30 05:13:42;;;;;;;43.10;6.25;;;5.70;99.90;;;;;;5016574;28;20517;-77
2022/01/30 05:16:08;;;;;;;34.90;5.53;;;5.60;99.90;;;;;;5026641;28;20038;-77
2022/01/30 05:18:34;;;;;;;38.65;5.10;;;5.60;99.90;;;;;;5029803;28;20034;-77
2022/01/30 05:21:00;;;;;;;35.53;6.28;;;5.60;99.90;;;;;;5016347;28;20518;-78
2022/01/30 05:23:26;;;;;;;26.45;5.40;;;5.50;99.90;;;;;;5014212;28;20045;-76
2022/01/30 05:25:53;;;;;;;41.92;6.07;;;5.50;99.90;;;;;;5026320;28;20658;-79
2022/01/30 05:28:22;;;;;;;47.13;7.32;;;5.50;99.90;;;;;;5030500;28;20125;-79
2022/01/30 05:30:48;;;;;;;48.40;8.30;;;5.50;99.90;;;;;;5028425;28;20041;-77
2022/01/30 05:33:14;;;;;;;44.70;9.35;;;5.50;99.90;;;;;;5041939;28;20613;-77
2022/01/30 05:35:41;;;;;;;50.53;7.57;;;5.40;99.90;;;;;;5024729;28;20030;-77
2022/01/30 05:38:08;;;;;;;50.70;8.68;;;5.50;99.90;;;;;;5025697;28;20057;-78
2022/01/30 05:40:37;;;;;;;46.85;7.72;;;5.50;99.90;;;;;;5031179;28;20057;-76
2022/01/30 05:43:04;;;;;;;48.50;7.53;;;5.50;99.90;;;;;;5011717;28;20120;-79
2022/01/30 05:45:37;;;;;;;51.58;7.35;;;5.80;99.90;;;;;;5012437;28;20120;-80
2022/01/30 05:48:09;;;;;;;55.38;8.52;;;5.50;99.90;;;;;;5020858;28;20046;-79
2022/01/30 05:50:35;;;;;;;;;;;5.50;99.90;;;;;;5026538;28;20076;-78
2022/01/30 05:53:00;;;;;;;56.30;8.60;;;5.50;99.90;;;;;;5027576;28;20385;-76
2022/01/30 05:55:26;;;;;;;48.35;8.00;;;5.60;99.90;;;;;;5026187;28;20119;-79
2022/01/30 05:57:52;;;;;;;53.47;7.85;;;5.60;99.90;;;;;;5026825;28;20434;-77
2022/01/30 06:00:18;;;;;;;38.05;5.90;;;5.60;99.90;;;;;;5032511;28;20049;-78
2022/01/30 06:02:45;;;;;;;49.05;8.02;;;5.60;99.90;;;;;;5024405;28;20111;-75
2022/01/30 06:05:13;;;;;;;43.95;8.50;;;5.70;99.90;;;;;;5022325;28;20056;-78
2022/01/30 06:07:47;;;;;;;36.13;6.95;;;5.70;99.90;;;;;;5010151;28;20046;-77
2022/01/30 06:10:13;;;;;;;43.92;7.05;;;5.70;99.90;;;;;;5013583;28;20060;-80
2022/01/30 06:12:39;;;;;;;45.63;6.68;;;5.70;99.90;;;;;;5021559;28;20103;-77
2022/01/30 06:15:05;;;;;;;40.35;6.50;;;5.70;99.90;;;;;;5011034;28;20124;-77
2022/01/30 06:17:31;;;;;;;46.67;7.10;;;5.70;99.90;;;;;;5028632;28;20053;-79
2022/01/30 06:19:57;;;;;;;48.38;6.82;;;5.70;99.90;;;;;;5028448;28;20128;-78
2022/01/30 06:22:22;;;;;;;48.88;6.88;;;5.70;99.90;;;;;;5011483;28;20772;-78
2022/01/30 06:24:48;;;;;;;53.88;7.45;;;5.70;99.90;;;;;;5023615;28;20414;-77
2022/01/30 06:27:13;;;;;;;49.72;7.47;;;5.70;99.90;;;;;;5026227;28;20083;-78
2022/01/30 06:29:39;;;;;;;43.05;6.32;;;5.70;99.90;;;;;;5019095;28;20049;-78
2022/01/30 06:32:05;;;;;;;47.22;7.32;;;5.60;99.90;;;;;;5029414;28;20542;-78
2022/01/30 06:34:31;;;;;;;45.03;6.80;;;5.60;99.90;;;;;;5042449;28;20457;-79
2022/01/30 06:36:57;;;;;;;47.65;7.03;;;5.60;99.90;;;;;;5026083;28;20262;-78
2022/01/30 06:39:22;;;;;;;52.55;8.02;;;5.60;99.90;;;;;;5027047;28;20139;-78
2022/01/30 06:41:48;;;;;;;54.83;8.18;;;5.60;99.90;;;;;;5030606;28;20780;-80
2022/01/30 06:44:14;;;;;;;49.53;7.53;;;5.60;99.90;;;;;;5032545;28;20056;-79
2022/01/30 06:46:39;;;;;;;44.28;6.88;;;5.60;99.90;;;;;;5025490;28;20658;-80
2022/01/30 06:49:05;;;;;;;45.92;8.00;;;5.60;99.90;;;;;;5012291;28;20052;-78
2022/01/30 06:51:31;;;;;;;51.53;7.75;;;5.60;99.90;;;;;;5009415;28;20041;-79
2022/01/30 06:53:56;;;;;;;51.85;8.32;;;5.70;99.90;;;;;;5013467;28;20064;-78
2022/01/30 06:56:22;;;;;;;48.90;7.63;;;5.70;99.90;;;;;;5010185;28;20128;-79
2022/01/30 06:58:48;;;;;;;49.13;7.00;;;5.70;99.90;;;;;;5022896;28;20514;-79
2022/01/30 07:01:13;;;;;;;54.65;9.10;;;5.70;99.90;;;;;;5015871;28;20077;-78
2022/01/30 07:03:39;;;;;;;51.97;8.85;;;5.80;99.90;;;;;;5041521;28;20037;-77
2022/01/30 07:06:05;;;;;;;50.33;8.93;;;5.80;99.90;;;;;;5030778;28;20440;-77
2022/01/30 07:08:30;;;;;;;54.45;7.97;;;5.80;99.90;;;;;;5034493;28;20041;-77
2022/01/30 07:10:56;;;;;;;54.08;8.55;;;5.80;99.90;;;;;;5016606;28;20443;-77
2022/01/30 07:13:21;;;;;;;42.95;8.43;;;5.80;99.90;;;;;;5007713;28;20041;-77
2022/01/30 07:15:47;;;;;;;48.53;8.00;;;5.80;99.90;;;;;;5017653;28;20049;-77
2022/01/30 07:18:13;;;;;;;49.33;7.63;;;5.80;99.90;;;;;;5036264;28;20457;-77
2022/01/30 07:20:38;;;;;;;49.03;7.63;;;5.80;99.90;;;;;;5012713;28;20469;-77
2022/01/30 07:23:04;;;;;;;50.17;7.07;;;5.80;99.90;;;;;;5035085;28;20041;-77
2022/01/30 07:25:30;;;;;;;51.20;7.15;;;5.80;99.90;;;;;;5031371;28;20486;-78
2022/01/30 07:27:59;;;;;;;49.00;6.75;;;5.80;99.90;;;;;;5024838;28;20045;-77
2022/01/30 07:30:24;;;;;;;50.08;8.15;;;5.80;99.90;;;;;;5012504;28;20052;-77
2022/01/30 07:32:50;;;;;;;38.60;6.47;;;5.80;99.90;;;;;;5008994;28;20148;-77
2022/01/30 07:35:17;;;;;;;45.78;6.30;;;5.70;99.90;;;;;;5027279;28;20075;-80
2022/01/30 07:37:43;;;;;;;44.70;8.05;;;5.90;99.90;;;;;;5019012;28;20115;-76
2022/01/30 07:40:09;;;;;;;37.60;7.70;;;5.70;99.90;;;;;;5034798;28;20398;-80
2022/01/30 07:42:35;;;;;;;42.70;6.53;;;5.70;99.90;;;;;;5015319;28;20606;-80
2022/01/30 07:45:01;;;;;;;40.80;7.75;;;6.10;99.90;;;;;;5032645;28;20075;-78
2022/01/30 07:47:27;;;;;;;41.05;6.43;;;5.70;99.90;;;;;;5018999;28;20043;-82
2022/01/30 07:49:52;;;;;;;38.13;7.05;;;5.70;99.90;;;;;;5013017;28;20557;-80
2022/01/30 07:52:22;;;;;;;54.33;7.15;;;5.70;99.90;;;;;;5014194;28;20037;-80
2022/01/30 07:54:48;;;;;;;33.75;5.30;;;5.70;99.90;;;;;;5013692;28;20438;-78
2022/01/30 07:57:14;;;;;;;36.30;6.32;;;5.70;99.90;;;;;;5014355;28;20132;-79
2022/01/30 07:59:41;;;;;;;42.25;5.65;;;5.70;99.90;;;;;;5030138;28;20136;-77
2022/01/30 08:02:07;;;;;;;36.80;4.93;;;5.60;99.90;;;;;;5033867;28;20090;-80
2022/01/30 08:04:33;;;;;;;38.47;6.15;;;5.60;99.90;;;;;;5033875;28;20056;-81
2022/01/30 08:07:00;;;;;;;39.22;6.05;;;5.60;99.90;;;;;;5011863;28;20037;-80
2022/01/30 08:09:26;;;;;;;37.92;6.40;;;5.60;99.90;;;;;;5032658;28;20457;-75
2022/01/30 08:11:52;;;;;;;29.60;6.15;;;5.60;99.90;;;;;;5033091;28;20076;-76
2022/01/30 08:14:18;;;;;;;51.17;6.85;;;5.70;99.90;;;;;;5027510;28;20526;-77
2022/01/30 08:16:44;;;;;;;43.15;6.28;;;5.60;99.90;;;;;;5028442;28;20053;-76
2022/01/30 08:19:09;;;;;;;45.42;6.53;;;5.60;99.90;;;;;;5030239;28;20421;-76
2022/01/30 08:21:35;;;;;;;43.30;6.85;;;5.60;99.90;;;;;;5029149;28;20499;-77
2022/01/30 08:24:01;;;;;;;46.90;6.55;;;5.60;99.90;;;;;;5016176;28;20040;-77
2022/01/30 08:26:29;;;;;;;44.58;7.35;;;5.60;99.90;;;;;;5048592;28;20757;-76
2022/01/30 08:28:55;;;;;;;38.58;6.50;;;5.60;99.90;;;;;;5032356;28;20052;-79
2022/01/30 08:31:20;;;;;;;47.67;6.55;;;5.60;99.90;;;;;;5028467;28;20038;-80
2022/01/30 08:33:46;;;;;;;42.38;6.30;;;5.60;99.90;;;;;;5022307;28;20590;-77
2022/01/30 08:36:12;;;;;;;42.40;6.35;;;5.60;99.90;;;;;;5034850;28;20538;-79
2022/01/30 08:38:38;;;;;;;53.47;8.20;;;5.70;99.90;;;;;;5032945;28;20127;-80
2022/01/30 08:41:03;;;;;;;43.15;7.88;;;5.90;99.90;;;;;;5047194;28;20042;-80
2022/01/30 08:43:30;;;;;;;42.92;7.10;;;6.10;99.90;;;;;;5033761;28;20049;-79
2022/01/30 08:45:56;;;;;;;46.08;6.78;;;6.10;99.90;;;;;;5045397;28;20414;-80
2022/01/30 08:48:22;;;;;;;56.25;7.30;;;6.10;99.90;;;;;;5044707;28;20044;-78
2022/01/30 08:50:48;;;;;;;44.40;6.90;;;6.00;99.90;;;;;;5024963;28;20041;-79
2022/01/30 08:53:15;;;;;;;51.88;7.80;;;5.90;99.90;;;;;;5029752;28;20498;-79
2022/01/30 08:55:41;;;;;;;51.42;6.82;;;5.90;99.90;;;;;;5028648;28;20053;-76
2022/01/30 08:58:09;;;;;;;59.13;8.43;;;5.90;99.90;;;;;;5010788;28;20411;-79
2022/01/30 09:00:37;;;;;;;46.38;7.43;;;5.80;99.90;;;;;;5027241;28;20516;-80
2022/01/30 09:03:09;;;;;;;39.50;7.38;;;5.80;99.90;;;;;;5030401;28;20053;-78
2022/01/30 09:05:35;;;;;;;47.38;6.85;;;5.90;99.90;;;;;;5028648;28;20115;-79
2022/01/30 09:08:05;;;;;;;45.30;7.00;;;5.90;99.90;;;;;;5021431;28;20559;-80
2022/01/30 09:10:32;;;;;;;47.05;6.97;;;6.00;99.90;;;;;;5023708;28;20033;-79
2022/01/30 09:13:01;;;;;;;40.03;6.22;;;6.10;99.90;;;;;;5037537;28;20405;-79
2022/01/30 09:15:27;;;;;;;40.83;6.78;;;6.10;99.90;;;;;;5021307;28;20247;-79
2022/01/30 09:17:53;;;;;;;48.38;6.60;;;6.00;99.90;;;;;;5019833;28;20049;-78
2022/01/30 09:20:19;;;;;;;39.67;5.75;;;6.00;99.90;;;;;;4998892;28;20398;-75
2022/01/30 09:22:45;;;;;;;50.72;7.45;;;5.80;99.90;;;;;;5016272;28;20067;-77
2022/01/30 09:25:11;;;;;;;58.45;7.28;;;6.10;99.90;;;;;;5019510;28;20034;-77
2022/01/30 09:27:37;;;;;;;45.30;7.32;;;6.30;99.90;;;;;;5015960;28;20042;-75
2022/01/30 09:30:05;;;;;;;42.20;6.80;;;6.30;99.90;;;;;;5041578;28;20040;-78
2022/01/30 09:32:30;;;;;;;51.45;7.60;;;6.40;99.90;;;;;;5015968;28;20096;-77
2022/01/30 09:34:57;;;;;;;47.97;6.68;;;6.30;99.90;;;;;;5019934;28;20053;-78
2022/01/30 09:37:22;;;;;;;46.65;7.28;;;6.30;99.90;;;;;;5036818;28;20087;-78
2022/01/30 09:39:48;;;;;;;44.10;6.95;;;6.30;99.90;;;;;;5042501;28;20577;-79
2022/01/30 09:42:14;;;;;;;41.15;7.05;;;6.20;99.90;;;;;;5007023;28;20580;-78
2022/01/30 09:44:40;;;;;;;37.28;6.43;;;6.20;99.90;;;;;;5024871;28;20407;-77
2022/01/30 09:47:14;;;;;;;40.53;5.93;;;6.30;99.90;;;;;;5034881;28;20034;-78
2022/01/30 09:49:47;;;;;;;42.65;6.97;;;6.40;99.90;;;;;;5025629;28;20046;-77
2022/01/30 09:52:13;;;;;;;40.58;5.57;;;6.40;99.90;;;;;;5026887;28;20099;-78
2022/01/30 09:54:38;;;;;;;41.25;5.38;;;6.40;99.90;;;;;;5014227;28;20503;-78
2022/01/30 09:57:04;;;;;;;37.00;6.95;;;6.50;99.90;;;;;;5015062;28;20727;-78
2022/01/30 09:59:30;;;;;;;44.13;6.07;;;6.50;99.90;;;;;;5018381;28;20044;-77
2022/01/30 10:01:55;;;;;;;39.70;6.28;;;6.60;99.90;;;;;;5016678;28;20072;-81
2022/01/30 10:04:21;;;;;;;36.15;7.03;;;6.60;99.90;;;;;;5015209;28;20073;-76
2022/01/30 10:07:15;;;;;;;35.42;5.15;;;6.70;99.90;;;;;;5036507;28;20132;-78
2022/01/30 10:09:46;;;;;;;45.90;6.55;;;6.80;99.90;;;;;;5026593;28;20041;-78
2022/01/30 10:12:19;;;;;;;37.70;6.18;;;6.90;99.90;;;;;;5012596;28;20502;-78
2022/01/30 10:15:05;;;;;;;34.88;6.50;;;6.90;99.90;;;;;;5044152;28;20103;-78
2022/01/30 10:17:40;;;;;;;49.40;6.93;;;6.90;99.90;;;;;;5006597;28;20033;-78
2022/01/30 10:20:05;;;;;;;50.60;6.65;;;6.90;99.90;;;;;;5008359;28;20044;-76
2022/01/30 10:22:35;;;;;;;50.75;7.47;;;6.80;99.90;;;;;;4993190;28;20045;-77
2022/01/30 10:25:01;;;;;;;40.92;6.43;;;6.80;99.90;;;;;;5006239;28;20052;-77
2022/01/30 10:27:28;;;;;;;39.38;6.00;;;6.70;99.90;;;;;;5015543;28;20593;-76
2022/01/30 10:30:05;;;;;;;50.15;7.40;;;6.70;99.90;;;;;;5017901;28;20111;-76
2022/01/30 10:32:32;;;;;;;50.72;8.50;;;6.70;99.90;;;;;;5004232;28;20065;-75
2022/01/30 10:35:03;;;;;;;48.47;6.93;;;6.60;99.90;;;;;;5017411;28;20076;-74
2022/01/30 10:37:29;;;;;;;39.63;6.15;;;6.60;99.90;;;;;;5018239;28;20075;-75
2022/01/30 10:40:27;;;;;;;40.40;5.90;;;6.60;99.90;;;;;;5033678;28;20042;-74
2022/01/30 10:42:53;;;;;;;42.58;7.65;;;6.50;99.90;;;;;;5026146;28;20057;-75
2022/01/30 10:45:19;;;;;;;47.92;6.35;;;6.60;99.90;;;;;;5015617;28;20041;-74
2022/01/30 10:47:45;;;;;;;44.13;6.72;;;6.70;99.90;;;;;;5036488;28;20162;-74
2022/01/30 10:50:13;;;;;;;33.88;5.60;;;6.70;99.90;;;;;;5026460;28;20045;-74
2022/01/30 10:52:59;;;;;;;40.17;6.40;;;6.80;99.90;;;;;;5026760;28;20049;-75
2022/01/30 10:55:51;;;;;;;41.72;5.40;;;6.40;99.90;;;;;;5022571;28;20036;-74
2022/01/30 10:58:19;;;;;;;37.17;6.32;;;6.90;99.90;;;;;;5033728;28;20057;-74
2022/01/30 11:00:53;;;;;;;30.83;5.65;;;6.90;99.90;;;;;;5019762;28;20057;-74
2022/01/30 11:03:39;;;;;;;50.13;5.95;;;6.90;99.90;;;;;;5018794;28;20072;-73
2022/01/30 11:06:09;;;;;;;44.78;6.50;;;7.00;99.90;;;;;;4991120;28;22155;-73
2022/01/30 11:08:38;;;;;;;32.95;5.50;;;7.10;99.90;;;;;;5028217;28;20171;-74
2022/01/30 11:11:56;;;;;;;42.20;6.47;;;7.10;99.90;;;;;;5037849;28;20465;-74
2022/01/30 11:19:17;;;;;;;49.20;7.32;;;7.00;99.90;;;;;;5017285;28;20056;-74
2022/01/30 11:21:48;;;;;;;40.25;6.35;;;7.00;99.90;;;;;;5026210;28;20415;-73
2022/01/30 11:24:15;;;;;;;36.92;6.68;;;6.90;99.90;;;;;;5019595;28;20053;-73
2022/01/30 11:26:43;;;;;;;44.30;6.30;;;6.90;99.90;;;;;;5021822;28;20063;-74
2022/01/30 11:29:11;;;;;;;43.30;5.68;;;7.00;99.90;;;;;;5018774;28;20414;-74
2022/01/30 11:31:40;;;;;;;46.72;6.43;;;6.90;99.90;;;;;;5028373;28;20680;-74
2022/01/30 11:34:06;;;;;;;38.67;5.93;;;7.00;99.90;;;;;;5024469;28;20120;-74
2022/01/30 11:36:34;;;;;;;38.00;6.03;;;7.00;99.90;;;;;;5027155;28;20410;-75
2022/01/30 11:39:01;;;;;;;44.75;6.90;;;7.10;99.90;;;;;;5027586;28;20491;-74
2022/01/30 11:41:30;;;;;;;43.80;6.80;;;7.10;99.90;;;;;;5013236;28;21655;-73
2022/01/30 11:44:18;;;;;;;45.45;6.18;;;7.20;99.90;;;;;;5022888;28;20080;-74
2022/01/30 11:46:55;;;;;;;34.53;5.07;;;7.10;99.90;;;;;;5030309;28;20480;-74
2022/01/30 11:49:21;;;;;;;42.58;6.45;;;7.00;99.90;;;;;;5025108;28;20713;-74
2022/01/30 11:51:54;;;;;;;33.20;6.32;;;7.00;99.90;;;;;;5029814;28;20090;-75
2022/01/30 11:55:05;;;;;;;42.25;6.85;;;7.00;99.90;;;;;;5015313;28;20745;-75
2022/01/30 11:57:32;;;;;;;40.85;7.07;;;6.90;99.90;;;;;;5033027;28;20057;-75
2022/01/30 12:00:01;;;;;;;43.45;6.55;;;6.90;99.90;;;;;;5035101;28;20127;-72
2022/01/30 12:02:34;;;;;;;41.17;6.22;;;6.90;99.90;;;;;;5020214;28;20095;-73
2022/01/30 12:05:07;;;;;;;38.83;5.90;;;6.90;99.90;;;;;;5036235;28;20049;-73
2022/01/30 12:07:45;;;;;;;39.92;6.53;;;7.00;99.90;;;;;;5032195;28;20866;-74
2022/01/30 12:10:20;;;;;;;41.10;5.60;;;7.00;99.90;;;;;;5019306;28;20402;-74
2022/01/30 12:12:58;;;;;;;39.47;6.05;;;7.10;99.90;;;;;;5050774;28;20049;-74
2022/01/30 12:15:44;;;;;;;40.40;5.63;;;7.10;99.90;;;;;;5044954;28;20061;-75
2022/01/30 12:18:14;;;;;;;45.97;6.57;;;7.10;99.90;;;;;;5034599;28;20055;-75
2022/01/30 12:21:00;;;;;;;45.33;7.00;;;7.10;99.90;;;;;;5041775;28;20049;-75
2022/01/30 12:23:34;;;;;;;44.75;7.03;;;7.10;99.90;;;;;;5016132;28;20045;-72
2022/01/30 12:26:14;;;;;;;53.65;6.40;;;7.20;99.90;;;;;;5035569;28;20056;-72
2022/01/30 12:28:41;;;;;;;37.40;5.18;;;7.30;99.90;;;;;;5034678;28;20094;-74
2022/01/30 12:31:38;;;;;;;40.38;6.15;;;7.30;99.90;;;;;;5042553;28;20106;-73
2022/01/30 12:34:14;;;;;;;38.47;5.80;;;7.10;99.90;;;;;;5026773;28;20128;-73
2022/01/30 12:36:42;;;;;;;46.60;6.15;;;7.00;99.90;;;;;;5026845;28;20053;-76
2022/01/30 12:39:11;;;;;;;37.92;6.50;;;6.90;99.90;;;;;;5033940;28;20052;-74
2022/01/30 12:41:39;;;;;;;41.65;6.75;;;6.80;99.90;;;;;;5042340;28;20570;-73
2022/01/30 12:44:16;;;;;;;37.67;6.07;;;6.80;99.90;;;;;;5032879;28;20056;-73
2022/01/30 12:46:51;;;;;;;34.60;4.93;;;6.90;99.90;;;;;;5026004;28;20064;-74
2022/01/30 12:49:18;;;;;;;37.70;6.15;;;6.90;99.90;;;;;;5032340;28;20056;-73
2022/01/30 12:51:49;;;;;;;45.60;7.13;;;6.80;99.90;;;;;;5030827;28;20052;-73
2022/01/30 12:54:19;;;;;;;37.25;5.40;;;6.90;99.90;;;;;;5017492;28;20045;-74
2022/01/30 12:56:45;;;;;;;40.10;5.80;;;7.00;99.90;;;;;;5027884;28;20049;-74
2022/01/30 12:59:13;;;;;;;32.10;5.85;;;7.10;99.90;;;;;;5030302;28;20045;-72
2022/01/30 13:01:47;;;;;;;32.67;5.93;;;7.20;99.90;;;;;;5014935;28;20080;-73
2022/01/30 13:04:17;;;;;;;29.33;5.13;;;7.30;99.90;;;;;;5030289;28;20045;-73
2022/01/30 13:06:45;;;;;;;34.45;5.25;;;7.30;99.90;;;;;;5027180;28;20951;-75
2022/01/30 13:09:16;;;;;;;30.10;4.82;;;7.60;99.90;;;;;;5029125;28;20394;-73
2022/01/30 13:11:41;;;;;;;40.72;5.32;;;7.30;99.90;;;;;;5031242;28;20045;-73
2022/01/30 13:14:08;;;;;;;35.38;4.82;;;7.30;99.90;;;;;;5027545;28;20348;-74
2022/01/30 13:16:46;;;;;;;32.38;4.57;;;7.20;99.90;;;;;;5029547;28;20112;-74
2022/01/30 13:19:26;;;;;;;45.83;5.25;;;7.10;99.90;;;;;;5028388;28;20051;-75
2022/01/30 13:21:52;;;;;;;37.55;5.28;;;7.00;99.90;;;;;;5035447;28;20049;-75
2022/01/30 13:24:19;;;;;;;31.65;4.95;;;6.90;99.90;;;;;;5028346;28;20042;-75
2022/01/30 13:26:46;;;;;;;34.35;5.47;;;6.80;99.90;;;;;;5013940;28;20128;-75
2022/01/30 13:29:16;;;;;;;42.30;5.05;;;6.80;99.90;;;;;;5026912;28;20114;-74
2022/01/30 13:31:44;;;;;;;26.05;4.47;;;6.70;99.90;;;;;;5032117;28;20045;-74
2022/01/30 13:34:22;;;;;;;25.73;4.70;;;6.70;99.90;;;;;;5032990;28;20068;-72
2022/01/30 13:36:54;;;;;;;32.83;4.85;;;6.80;99.90;;;;;;5033350;28;20057;-75
2022/01/30 13:39:31;;;;;;;37.53;6.05;;;6.70;99.90;;;;;;5013196;28;20132;-75
2022/01/30 13:45:07;;;;;;;23.58;4.80;;;6.80;99.90;;;;;;5029421;28;20049;-75
2022/01/30 13:47:34;;;;;;;29.65;5.15;;;6.80;99.90;;;;;;5024330;28;20049;-74
2022/01/30 13:50:00;;;;;;;26.80;5.50;;;6.80;99.90;;;;;;5028865;28;20096;-73
2022/01/30 13:53:40;;;;;;;31.67;4.65;;;6.80;99.90;;;;;;5010688;28;20476;-74